Grandin, Florida
Current Conditions -  °F | °C
As of 4:55 PM on Thursday 27 Nov 2014 (Local Time) from K42J Reporting Station
Clear Clear  
Wind Chill: 57°   Ceiling: Unl
Heat Index: 57°   Visibility: 10mi
Dew Point: 32°   Wind: 12mph
Humidity: 38%   Direction: 340°NNW
Pressure: 30.22"   Gusts: NA
Location:  29.73°N, 81.92°W
Report Text: K42J 272155Z AUTO 34010KT 10SM CLR 14/00 A3022 RMK AO1 TSNO
Loading
Personal Weather Stations






























Interactive Weather Map New forecast layout! Learn more

10-Day Weather Forecast

Advertisements
Track Severe Weather on mobile